Time;durP1;ratioP1;P1;durP2;ratioP2;P2;SDS_P1;SDS_P2;PMS_P1;PMS_P2;Temp;Humidity;BMP_temperature;BMP_pressure;BME280_temperature;BME280_humidity;BME280_pressure;Samples;Min_cycle;Max_cycle;Signal;HPM_P1;HPM_P2
2023/04/05 00:01:29;;;;;;;9.85;5.00;;;2.80;99.90;;;;;;5030570;28;20041;-73
2023/04/05 00:03:58;;;;;;;7.60;3.78;;;2.80;99.90;;;;;;5020745;28;20022;-72
2023/04/05 00:06:25;;;;;;;10.38;4.55;;;2.80;99.90;;;;;;5028116;28;20047;-72
2023/04/05 00:08:54;;;;;;;10.80;5.72;;;2.80;99.90;;;;;;5028518;28;20087;-72
2023/04/05 00:11:21;;;;;;;10.30;4.07;;;2.70;99.90;;;;;;5024688;28;20039;-72
2023/04/05 00:13:46;;;;;;;7.63;4.40;;;2.70;99.90;;;;;;5027932;28;20052;-72
2023/04/05 00:16:12;;;;;;;12.95;5.45;;;2.60;99.90;;;;;;5028105;28;21018;-72
2023/04/05 00:18:38;;;;;;;10.43;4.30;;;2.60;99.90;;;;;;5029379;28;20033;-72
2023/04/05 00:21:04;;;;;;;10.35;4.07;;;2.60;99.90;;;;;;5029019;28;20150;-72
2023/04/05 00:23:38;;;;;;;9.98;3.60;;;2.50;99.90;;;;;;5022710;28;20474;-72
2023/04/05 00:26:04;;;;;;;10.60;3.90;;;2.50;99.90;;;;;;5028491;28;20476;-72
2023/04/05 00:28:29;;;;;;;8.02;4.07;;;2.50;99.90;;;;;;5030770;28;20031;-72
2023/04/05 00:30:55;;;;;;;11.23;4.65;;;2.50;99.90;;;;;;5026436;28;20488;-72
2023/04/05 00:33:20;;;;;;;7.05;3.58;;;2.40;99.90;;;;;;5026559;28;20076;-72
2023/04/05 00:35:46;;;;;;;9.07;3.65;;;2.40;99.90;;;;;;5030645;28;20026;-72
2023/04/05 00:38:11;;;;;;;8.43;3.97;;;2.40;99.90;;;;;;5027018;28;20048;-72
2023/04/05 00:40:37;;;;;;;11.02;4.53;;;2.40;99.90;;;;;;5026579;28;20083;-72
2023/04/05 00:43:02;;;;;;;11.05;4.13;;;2.40;99.90;;;;;;5029085;28;20504;-72
2023/04/05 00:45:28;;;;;;;9.75;4.80;;;2.40;99.90;;;;;;5028891;28;20116;-72
2023/04/05 00:47:54;;;;;;;9.02;3.97;;;2.40;99.90;;;;;;5025965;28;20029;-72
2023/04/05 00:50:20;;;;;;;9.98;4.00;;;2.30;99.90;;;;;;5023129;28;20424;-72
2023/04/05 00:52:46;;;;;;;7.82;4.32;;;2.30;99.90;;;;;;5027892;28;20049;-72
2023/04/05 00:55:13;;;;;;;10.82;4.68;;;2.30;99.90;;;;;;5029675;28;20112;-72
2023/04/05 00:57:39;;;;;;;9.88;4.75;;;2.30;99.90;;;;;;5029800;28;20036;-72
2023/04/05 01:00:10;;;;;;;7.57;4.03;;;2.20;99.90;;;;;;5021372;28;20026;-72
2023/04/05 01:02:46;;;;;;;13.50;5.87;;;2.20;99.90;;;;;;5022090;28;20037;-72
2023/04/05 01:05:29;;;;;;;9.82;3.83;;;2.20;99.90;;;;;;5020738;28;20369;-72
2023/04/05 01:08:21;;;;;;;9.43;4.45;;;2.20;99.90;;;;;;5030506;28;20037;-72
2023/04/05 01:10:53;;;;;;;7.43;3.90;;;2.20;99.90;;;;;;5019830;28;20389;-72
2023/04/05 01:13:19;;;;;;;11.38;4.32;;;2.20;99.90;;;;;;5028486;28;20022;-72
2023/04/05 01:15:45;;;;;;;14.68;5.10;;;2.20;99.90;;;;;;5028464;28;20034;-72
2023/04/05 01:18:12;;;;;;;9.90;4.15;;;2.10;99.90;;;;;;5026464;28;20026;-72
2023/04/05 01:20:45;;;;;;;11.93;4.28;;;2.20;99.90;;;;;;5021972;28;20042;-72
2023/04/05 01:23:29;;;;;;;6.53;3.65;;;2.10;99.90;;;;;;5027951;28;20055;-72
2023/04/05 01:26:32;;;;;;;8.80;4.57;;;2.10;99.90;;;;;;5028933;28;20030;-72
2023/04/05 01:29:33;;;;;;;10.93;4.32;;;2.00;99.90;;;;;;5028755;28;20033;-72
2023/04/05 01:32:10;;;;;;;9.07;4.50;;;2.00;99.90;;;;;;5002532;28;20091;-72
2023/04/05 01:34:45;;;;;;;9.73;3.70;;;2.00;99.90;;;;;;5017646;28;20044;-72
2023/04/05 01:37:14;;;;;;;7.70;3.55;;;2.00;99.90;;;;;;5028944;28;20017;-73
2023/04/05 01:39:40;;;;;;;13.13;4.40;;;1.90;99.90;;;;;;5032416;28;20041;-72
2023/04/05 01:42:06;;;;;;;10.13;3.95;;;1.90;99.90;;;;;;5033455;28;20034;-72
2023/04/05 01:44:32;;;;;;;9.60;4.10;;;1.80;99.90;;;;;;5027079;28;20386;-72
2023/04/05 01:46:57;;;;;;;10.52;4.72;;;1.80;99.90;;;;;;5031036;28;20056;-72
2023/04/05 01:49:23;;;;;;;8.00;3.95;;;1.80;99.90;;;;;;5030271;28;20028;-72
2023/04/05 01:51:49;;;;;;;12.20;4.43;;;1.70;99.90;;;;;;5033083;28;20076;-72
2023/04/05 01:54:14;;;;;;;10.20;3.60;;;1.70;99.90;;;;;;5030203;28;20029;-72
2023/04/05 01:56:40;;;;;;;10.93;3.92;;;1.60;99.90;;;;;;5033418;28;20104;-72
2023/04/05 01:59:05;;;;;;;7.93;4.40;;;1.70;99.90;;;;;;5033048;28;20029;-72
2023/04/05 02:01:31;;;;;;;9.18;3.88;;;1.60;99.90;;;;;;5028746;28;20052;-72
2023/04/05 02:03:57;;;;;;;11.27;4.57;;;1.70;99.90;;;;;;5021155;28;20021;-72
2023/04/05 02:06:22;;;;;;;8.95;4.15;;;1.70;99.90;;;;;;5031581;28;20562;-72
2023/04/05 02:08:48;;;;;;;8.18;4.47;;;1.70;99.90;;;;;;5030793;28;20104;-72
2023/04/05 02:11:13;;;;;;;7.63;3.72;;;1.70;99.90;;;;;;5028406;28;20033;-72
2023/04/05 02:13:39;;;;;;;9.30;4.65;;;1.70;99.90;;;;;;5027245;28;20053;-72
2023/04/05 02:16:05;;;;;;;11.35;4.15;;;1.70;99.90;;;;;;5028161;28;20017;-72
2023/04/05 02:18:30;;;;;;;9.68;4.53;;;1.70;99.90;;;;;;5031537;28;20028;-72
2023/04/05 02:21:04;;;;;;;13.43;4.22;;;1.70;99.90;;;;;;5024144;28;20026;-72
2023/04/05 02:23:30;;;;;;;8.38;3.95;;;1.80;99.90;;;;;;5028646;28;20112;-72
2023/04/05 02:25:57;;;;;;;10.05;4.75;;;1.80;99.90;;;;;;5025377;28;20021;-72
2023/04/05 02:28:22;;;;;;;9.57;4.45;;;1.80;99.90;;;;;;5029887;28;20107;-72
2023/04/05 02:30:48;;;;;;;13.93;4.53;;;1.80;99.90;;;;;;5023063;28;20490;-72
2023/04/05 02:33:13;;;;;;;11.48;4.60;;;1.70;99.90;;;;;;5030004;28;20040;-72
2023/04/05 02:35:39;;;;;;;11.43;4.95;;;1.60;99.90;;;;;;5026773;28;20802;-72
2023/04/05 02:38:05;;;;;;;9.95;4.07;;;1.60;99.90;;;;;;5026533;28;20026;-72
2023/04/05 02:40:32;;;;;;;10.13;4.95;;;1.60;99.90;;;;;;5023979;28;20018;-72
2023/04/05 02:42:57;;;;;;;8.70;3.95;;;1.60;99.90;;;;;;5030823;28;20025;-72
2023/04/05 02:45:23;;;;;;;12.75;5.10;;;1.60;99.90;;;;;;5031080;28;20099;-72
2023/04/05 02:47:48;;;;;;;11.75;4.53;;;1.60;99.90;;;;;;5031303;28;20048;-72
2023/04/05 02:50:19;;;;;;;10.82;4.38;;;1.60;99.90;;;;;;5026484;28;20029;-72
2023/04/05 02:52:47;;;;;;;8.50;4.82;;;1.60;99.90;;;;;;5031864;28;20551;-72
2023/04/05 02:55:13;;;;;;;9.40;4.38;;;1.60;99.90;;;;;;5032613;28;20079;-72
2023/04/05 02:57:38;;;;;;;10.02;4.90;;;1.50;99.90;;;;;;5019421;28;20473;-72
2023/04/05 03:00:07;;;;;;;8.95;4.55;;;1.40;99.90;;;;;;5029238;28;20040;-72
2023/04/05 03:02:32;;;;;;;8.25;4.35;;;1.40;99.90;;;;;;5028662;28;20053;-72
2023/04/05 03:05:01;;;;;;;8.75;3.70;;;1.30;99.90;;;;;;5023286;28;20037;-72
2023/04/05 03:07:26;;;;;;;11.00;4.32;;;1.20;99.90;;;;;;5031460;28;20033;-72
2023/04/05 03:09:52;;;;;;;11.63;5.13;;;1.20;99.90;;;;;;5027094;28;20036;-72
2023/04/05 03:12:18;;;;;;;13.48;4.88;;;1.10;99.90;;;;;;5028905;28;20152;-72
2023/04/05 03:14:44;;;;;;;9.90;4.45;;;1.00;99.90;;;;;;5029686;28;20029;-72
2023/04/05 03:17:11;;;;;;;8.43;4.38;;;0.90;99.90;;;;;;5029952;28;20022;-72
2023/04/05 03:19:37;;;;;;;8.07;4.35;;;0.90;99.90;;;;;;5028886;28;20026;-72
2023/04/05 03:22:03;;;;;;;10.13;4.68;;;0.80;99.90;;;;;;5029492;28;20048;-72
2023/04/05 03:24:29;;;;;;;12.27;4.32;;;0.80;99.90;;;;;;5031708;28;20030;-72
2023/04/05 03:26:55;;;;;;;12.32;5.18;;;0.80;99.90;;;;;;5030977;28;20428;-73
2023/04/05 03:29:20;;;;;;;9.43;4.93;;;0.80;99.90;;;;;;5024116;28;20038;-72
2023/04/05 03:31:46;;;;;;;10.13;4.07;;;0.70;99.90;;;;;;5020654;28;20508;-72
2023/04/05 03:34:11;;;;;;;11.35;4.75;;;0.70;99.90;;;;;;5029612;28;20033;-72
2023/04/05 03:36:42;;;;;;;11.77;4.75;;;0.60;99.90;;;;;;5027965;28;20026;-72
2023/04/05 03:39:09;;;;;;;9.52;4.32;;;0.60;99.90;;;;;;5018685;28;20049;-72
2023/04/05 03:41:35;;;;;;;9.70;4.57;;;0.50;99.90;;;;;;5016532;28;20074;-72
2023/04/05 03:44:01;;;;;;;11.73;5.45;;;0.50;99.90;;;;;;5023936;28;20032;-72
2023/04/05 03:46:26;;;;;;;12.35;4.82;;;0.50;99.90;;;;;;5039956;28;20021;-72
2023/04/05 03:48:52;;;;;;;13.18;5.15;;;0.50;99.90;;;;;;5029119;28;20037;-72
2023/04/05 03:51:17;;;;;;;9.70;4.57;;;0.50;99.90;;;;;;5023421;28;20013;-72
2023/04/05 03:53:44;;;;;;;13.52;5.32;;;0.40;99.90;;;;;;5030185;28;20048;-72
2023/04/05 03:56:10;;;;;;;11.35;5.45;;;0.40;99.90;;;;;;5030535;28;20482;-72
2023/04/05 03:58:36;;;;;;;10.63;4.88;;;0.40;99.90;;;;;;5025315;28;20038;-72
2023/04/05 04:01:01;;;;;;;10.27;5.15;;;0.40;99.90;;;;;;5023944;28;20037;-72
2023/04/05 04:03:27;;;;;;;12.90;5.43;;;0.40;99.90;;;;;;5027772;28;20040;-72
2023/04/05 04:05:53;;;;;;;11.77;5.10;;;0.40;99.90;;;;;;5019845;28;20038;-72
2023/04/05 04:08:19;;;;;;;9.32;4.90;;;0.40;99.90;;;;;;5024860;28;20029;-72
2023/04/05 04:10:45;;;;;;;12.27;5.45;;;0.40;99.90;;;;;;5023330;28;20022;-72
2023/04/05 04:13:11;;;;;;;8.57;4.72;;;0.40;99.90;;;;;;5028253;28;20547;-72
2023/04/05 04:15:36;;;;;;;8.50;4.50;;;0.40;99.90;;;;;;5027940;28;20024;-72
2023/04/05 04:18:02;;;;;;;11.40;5.60;;;0.40;99.90;;;;;;5027552;28;20543;-72
2023/04/05 04:20:27;;;;;;;11.85;6.35;;;0.40;99.90;;;;;;5022869;28;20033;-72
2023/04/05 04:22:53;;;;;;;14.18;5.22;;;0.40;99.90;;;;;;5024266;28;20021;-72
2023/04/05 04:25:19;;;;;;;9.70;4.72;;;0.50;99.90;;;;;;5022681;28;20025;-72
2023/04/05 04:27:45;;;;;;;10.60;4.80;;;0.50;99.90;;;;;;5027810;28;20053;-72
2023/04/05 04:30:14;;;;;;;9.88;4.68;;;0.60;99.90;;;;;;5030116;28;20029;-72
2023/04/05 04:32:58;;;;;;;11.30;5.05;;;0.60;99.90;;;;;;5028545;28;20029;-72
2023/04/05 04:35:26;;;;;;;14.52;5.25;;;0.60;99.90;;;;;;5028687;28;20022;-72
2023/04/05 04:38:03;;;;;;;15.90;5.43;;;0.60;99.90;;;;;;5026597;28;20485;-72
2023/04/05 04:40:37;;;;;;;11.02;5.18;;;0.50;99.90;;;;;;5027413;28;20033;-72
2023/04/05 04:43:08;;;;;;;12.25;5.18;;;0.60;99.90;;;;;;5029223;28;20112;-72
2023/04/05 04:45:36;;;;;;;15.10;4.75;;;0.50;99.90;;;;;;5023942;28;20382;-72
2023/04/05 04:48:03;;;;;;;10.27;5.75;;;0.50;99.90;;;;;;5027868;28;20029;-72
2023/04/05 04:50:30;;;;;;;12.02;6.10;;;0.50;99.90;;;;;;5024747;28;20516;-72
2023/04/05 04:52:58;;;;;;;12.00;4.82;;;0.50;99.90;;;;;;5029519;28;20048;-72
2023/04/05 04:55:26;;;;;;;10.32;5.35;;;0.50;99.90;;;;;;5029819;28;20175;-73
2023/04/05 04:57:53;;;;;;;12.23;5.20;;;0.40;99.90;;;;;;5024906;28;20507;-73
2023/04/05 05:00:20;;;;;;;12.55;5.70;;;0.40;99.90;;;;;;5027755;28;20036;-73
2023/04/05 05:02:46;;;;;;;13.60;5.82;;;0.40;99.90;;;;;;5028271;28;20120;-72
2023/04/05 05:05:12;;;;;;;10.55;4.97;;;0.40;99.90;;;;;;5025225;28;20100;-72
2023/04/05 05:07:42;;;;;;;9.20;4.97;;;0.40;99.90;;;;;;5028495;28;20437;-73
2023/04/05 05:10:11;;;;;;;13.45;5.65;;;0.40;99.90;;;;;;5028563;28;20041;-72
2023/04/05 05:12:37;;;;;;;13.95;5.57;;;0.40;99.90;;;;;;5030606;28;20026;-73
2023/04/05 05:15:03;;;;;;;12.63;6.10;;;0.40;99.90;;;;;;5032709;28;20021;-72
2023/04/05 05:17:31;;;;;;;11.85;5.53;;;0.30;99.90;;;;;;5029270;28;20111;-72
2023/04/05 05:19:59;;;;;;;14.93;6.43;;;0.30;99.90;;;;;;5024171;28;20029;-73
2023/04/05 05:22:25;;;;;;;12.27;6.32;;;0.30;99.90;;;;;;5028854;28;20516;-73
2023/04/05 05:24:51;;;;;;;15.10;6.25;;;0.30;99.90;;;;;;5025058;28;20029;-73
2023/04/05 05:27:17;;;;;;;12.43;5.68;;;0.30;99.90;;;;;;5032154;28;20401;-72
2023/04/05 05:29:42;;;;;;;11.98;5.50;;;0.20;99.90;;;;;;5031236;28;20033;-73
2023/04/05 05:32:08;;;;;;;10.00;5.15;;;0.20;99.90;;;;;;5018901;28;20026;-73
2023/04/05 05:34:34;;;;;;;15.55;6.00;;;0.20;99.90;;;;;;5020941;28;20431;-73
2023/04/05 05:37:00;;;;;;;12.63;5.95;;;0.20;99.90;;;;;;5020967;28;20108;-73
2023/04/05 05:39:26;;;;;;;9.88;5.38;;;0.20;99.90;;;;;;5016410;28;20129;-73
2023/04/05 05:41:51;;;;;;;13.00;6.07;;;0.20;99.90;;;;;;5028938;28;20030;-73
2023/04/05 05:44:17;;;;;;;16.08;5.65;;;0.20;99.90;;;;;;5027784;28;20520;-73
2023/04/05 05:46:42;;;;;;;11.52;5.60;;;0.20;99.90;;;;;;5029961;28;20037;-72
2023/04/05 05:49:08;;;;;;;11.82;5.35;;;0.30;99.90;;;;;;5031223;28;20049;-73
2023/04/05 05:51:34;;;;;;;13.07;5.93;;;0.30;99.90;;;;;;5033388;28;20413;-74
2023/04/05 05:54:00;;;;;;;12.30;5.70;;;0.40;99.90;;;;;;5028375;28;20025;-73
2023/04/05 05:56:26;;;;;;;11.48;5.93;;;0.50;99.90;;;;;;5026290;28;20090;-73
2023/04/05 05:58:51;;;;;;;15.07;5.90;;;0.60;99.90;;;;;;5031907;28;20026;-73
2023/04/05 06:01:21;;;;;;;14.48;6.10;;;0.70;99.90;;;;;;5029952;28;20057;-73
2023/04/05 06:03:47;;;;;;;17.55;6.97;;;0.80;99.90;;;;;;5022032;28;20048;-73
2023/04/05 06:06:12;;;;;;;15.50;6.88;;;1.00;99.90;;;;;;5032296;28;20030;-73
2023/04/05 06:08:38;;;;;;;17.10;7.28;;;1.10;99.90;;;;;;5028880;28;20508;-73
2023/04/05 06:11:04;;;;;;;15.15;6.53;;;1.20;99.90;;;;;;5033646;28;20025;-73
2023/04/05 06:13:30;;;;;;;12.35;6.18;;;1.30;99.90;;;;;;5031384;28;20031;-73
2023/04/05 06:15:55;;;;;;;15.07;6.65;;;1.40;99.90;;;;;;5027654;28;20034;-73
2023/04/05 06:18:20;;;;;;;15.55;7.18;;;1.50;99.90;;;;;;5029080;28;20034;-73
2023/04/05 06:20:46;;;;;;;14.00;6.65;;;1.60;99.90;;;;;;5031937;28;20067;-73
2023/04/05 06:23:12;;;;;;;13.13;6.00;;;1.70;99.90;;;;;;5030693;28;20076;-73
2023/04/05 06:25:38;;;;;;;13.52;6.72;;;1.70;99.90;;;;;;5033609;28;20484;-73
2023/04/05 06:28:04;;;;;;;14.55;6.70;;;1.90;99.90;;;;;;5033690;28;20496;-73
2023/04/05 06:30:31;;;;;;;13.18;7.00;;;2.00;99.90;;;;;;5031027;28;20030;-73
2023/04/05 06:32:57;;;;;;;14.02;6.82;;;2.00;99.90;;;;;;5028668;28;20038;-73
2023/04/05 06:35:23;;;;;;;12.07;6.60;;;2.20;99.90;;;;;;5025788;28;20455;-73
2023/04/05 06:37:50;;;;;;;15.77;7.25;;;2.30;99.90;;;;;;5030524;28;20121;-73
2023/04/05 06:40:16;;;;;;;14.25;7.43;;;2.40;99.90;;;;;;5030762;28;20056;-73
2023/04/05 06:42:42;;;;;;;11.50;6.80;;;2.50;99.90;;;;;;5028465;28;20042;-73
2023/04/05 06:45:09;;;;;;;18.75;7.53;;;2.50;99.90;;;;;;5036500;28;20059;-73
2023/04/05 06:47:36;;;;;;;20.15;7.88;;;2.60;99.90;;;;;;5033248;28;20080;-73
2023/04/05 06:50:03;;;;;;;17.10;8.93;;;2.70;99.90;;;;;;5029601;28;20025;-73
2023/04/05 06:52:28;;;;;;;19.42;9.82;;;2.80;99.90;;;;;;5030869;28;20064;-73
2023/04/05 06:54:55;;;;;;;24.15;11.23;;;2.90;99.90;;;;;;5030436;28;20096;-73
2023/04/05 06:57:20;;;;;;;28.83;11.70;;;3.00;99.90;;;;;;5028046;28;20024;-73
2023/04/05 06:59:46;;;;;;;33.00;13.90;;;3.10;99.90;;;;;;5018814;28;20021;-73
2023/04/05 07:02:11;;;;;;;31.58;13.85;;;3.20;99.90;;;;;;5021812;28;20515;-73
2023/04/05 07:04:38;;;;;;;23.02;12.35;;;3.30;99.90;;;;;;5030418;28;20061;-72
2023/04/05 07:07:05;;;;;;;23.48;11.07;;;3.40;99.90;;;;;;5021498;28;20033;-72
2023/04/05 07:09:34;;;;;;;21.33;10.30;;;3.50;99.90;;;;;;5023981;28;20021;-73
2023/04/05 07:12:03;;;;;;;18.83;10.00;;;3.60;99.90;;;;;;5032469;28;20398;-72
2023/04/05 07:14:30;;;;;;;17.98;9.82;;;3.70;99.90;;;;;;5024417;28;20374;-73
2023/04/05 07:16:55;;;;;;;18.17;9.38;;;3.80;99.90;;;;;;5019800;28;20034;-72
2023/04/05 07:19:21;;;;;;;21.13;8.65;;;4.00;99.90;;;;;;5028323;28;20063;-73
2023/04/05 07:21:47;;;;;;;16.13;7.43;;;4.10;99.90;;;;;;5016248;28;20048;-73
2023/04/05 07:24:12;;;;;;;14.48;8.05;;;4.20;99.90;;;;;;5020942;28;20026;-73
2023/04/05 07:26:38;;;;;;;22.27;8.43;;;4.30;99.90;;;;;;5018912;28;20036;-72
2023/04/05 07:29:06;;;;;;;17.77;8.50;;;4.40;99.90;;;;;;5017292;28;20030;-73
2023/04/05 07:31:32;;;;;;;14.23;7.65;;;4.50;99.90;;;;;;5022450;28;20025;-72
2023/04/05 07:34:02;;;;;;;16.02;8.35;;;4.60;99.90;;;;;;5020474;28;20029;-73
2023/04/05 07:36:29;;;;;;;16.15;7.72;;;4.80;99.90;;;;;;5016265;28;20034;-73
2023/04/05 07:38:59;;;;;;;16.25;7.55;;;4.90;99.90;;;;;;5015493;28;20420;-73
2023/04/05 07:41:26;;;;;;;13.02;6.82;;;5.00;99.90;;;;;;5018115;28;20069;-73
2023/04/05 07:43:52;;;;;;;14.88;7.57;;;5.10;99.90;;;;;;5020876;28;20118;-73
2023/04/05 07:46:19;;;;;;;12.75;7.00;;;5.30;99.90;;;;;;5019081;28;20515;-72
2023/04/05 07:48:47;;;;;;;14.43;7.78;;;5.40;99.90;;;;;;5016533;28;20473;-73
2023/04/05 07:51:13;;;;;;;15.68;7.22;;;5.50;99.90;;;;;;5015740;28;20033;-71
2023/04/05 07:53:38;;;;;;;12.27;7.45;;;5.60;99.90;;;;;;5018181;28;20054;-71
2023/04/05 07:56:09;;;;;;;15.13;7.60;;;5.70;99.90;;;;;;5020805;28;20068;-73
2023/04/05 07:58:39;;;;;;;14.40;7.20;;;5.80;99.90;;;;;;5017930;28;20028;-73
2023/04/05 08:01:05;;;;;;;10.15;6.00;;;5.90;99.90;;;;;;5027479;28;20030;-73
2023/04/05 08:03:31;;;;;;;13.43;6.13;;;6.00;99.90;;;;;;5015073;28;20079;-73
2023/04/05 08:05:57;;;;;;;11.35;6.70;;;6.10;99.90;;;;;;5021537;28;20025;-73
2023/04/05 08:08:23;;;;;;;12.85;6.53;;;6.30;99.90;;;;;;5023899;28;20037;-73
2023/04/05 08:10:49;;;;;;;9.70;6.10;;;6.40;99.90;;;;;;5026881;28;20034;-71
2023/04/05 08:13:15;;;;;;;12.63;5.63;;;6.50;99.90;;;;;;5024848;28;20191;-71
2023/04/05 08:15:41;;;;;;;9.48;5.90;;;6.60;99.90;;;;;;5025696;28;20105;-72
2023/04/05 08:18:06;;;;;;;9.73;5.88;;;6.70;99.90;;;;;;5028468;28;20037;-71
2023/04/05 08:20:37;;;;;;;13.10;6.38;;;6.80;99.90;;;;;;5022111;28;20030;-71
2023/04/05 08:23:06;;;;;;;11.82;6.28;;;7.00;99.90;;;;;;5016533;28;20045;-71
2023/04/05 08:25:32;;;;;;;11.25;5.85;;;7.10;99.90;;;;;;5028598;28;20102;-71
2023/04/05 08:27:58;;;;;;;12.82;6.13;;;7.20;99.90;;;;;;5018095;28;20556;-71
2023/04/05 08:30:23;;;;;;;10.68;5.32;;;7.30;99.90;;;;;;5018724;28;20029;-72
2023/04/05 08:32:49;;;;;;;11.07;5.97;;;7.40;99.90;;;;;;5023592;28;20165;-71
2023/04/05 08:35:15;;;;;;;10.60;5.40;;;7.50;99.90;;;;;;5025315;28;20021;-72
2023/04/05 08:37:40;;;;;;;10.60;5.30;;;7.50;99.90;;;;;;5027043;28;20110;-71
2023/04/05 08:40:07;;;;;;;7.57;4.30;;;7.60;99.90;;;;;;5016770;28;20018;-72
2023/04/05 08:42:43;;;;;;;8.77;4.57;;;7.60;99.90;;;;;;5026590;28;20128;-72
2023/04/05 08:45:11;;;;;;;9.15;4.30;;;7.70;99.90;;;;;;5019867;28;20477;-73
2023/04/05 08:47:40;;;;;;;8.02;5.22;;;7.80;99.90;;;;;;5013168;28;20037;-72
2023/04/05 08:50:09;;;;;;;7.32;4.32;;;7.80;99.90;;;;;;5020156;28;20026;-73
2023/04/05 08:52:37;;;;;;;9.82;4.10;;;7.90;99.90;;;;;;5016425;28;20051;-71
2023/04/05 08:55:05;;;;;;;8.57;4.28;;;8.00;99.70;;;;;;5020912;28;20025;-72
2023/04/05 08:57:31;;;;;;;8.25;3.72;;;8.10;99.90;;;;;;5019169;28;20025;-72
2023/04/05 09:00:00;;;;;;;7.57;3.60;;;8.20;99.70;;;;;;5026538;28;20022;-72
2023/04/05 09:02:26;;;;;;;5.97;3.40;;;8.30;99.60;;;;;;5025462;28;20033;-72
2023/04/05 09:04:52;;;;;;;6.10;3.60;;;8.30;97.10;;;;;;5019543;28;20076;-72
2023/04/05 09:07:19;;;;;;;12.70;4.75;;;8.40;95.80;;;;;;5027251;28;20038;-72
2023/04/05 09:09:52;;;;;;;9.23;3.90;;;8.40;95.30;;;;;;5023298;28;20025;-72
2023/04/05 09:12:21;;;;;;;7.00;3.95;;;8.50;94.90;;;;;;5021146;28;20036;-72
2023/04/05 09:14:48;;;;;;;9.35;4.00;;;8.50;93.50;;;;;;5026242;28;20044;-72
2023/04/05 09:17:16;;;;;;;6.65;3.90;;;8.50;92.00;;;;;;5025197;28;20060;-72
2023/04/05 09:19:42;;;;;;;8.40;3.53;;;8.50;91.60;;;;;;5020620;28;20022;-72
2023/04/05 09:22:10;;;;;;;8.40;4.40;;;8.60;92.00;;;;;;5019916;28;20152;-72
2023/04/05 09:24:40;;;;;;;6.53;3.85;;;8.80;92.20;;;;;;5026294;28;20031;-72
2023/04/05 09:27:10;;;;;;;7.15;4.50;;;8.80;90.60;;;;;;5022328;28;20157;-72
2023/04/05 09:29:37;;;;;;;11.13;3.90;;;8.80;89.30;;;;;;5028182;28;20026;-72
2023/04/05 09:32:03;;;;;;;9.25;4.13;;;8.80;88.70;;;;;;5018674;28;20685;-72
2023/04/05 09:34:33;;;;;;;5.82;3.40;;;8.90;89.20;;;;;;5022211;28;20148;-72
2023/04/05 09:36:59;;;;;;;7.63;3.70;;;8.90;88.90;;;;;;5023503;28;20363;-72
2023/04/05 09:39:31;;;;;;;9.30;4.05;;;9.00;88.80;;;;;;5015787;28;20499;-72
2023/04/05 09:42:04;;;;;;;6.93;3.35;;;9.20;87.30;;;;;;5015710;28;20400;-72
2023/04/05 09:44:56;;;;;;;7.72;3.83;;;9.20;87.20;;;;;;5020493;28;20037;-73
2023/04/05 09:47:26;;;;;;;6.53;3.60;;;9.30;87.00;;;;;;5029011;28;20069;-72
2023/04/05 09:49:52;;;;;;;5.47;3.22;;;9.30;85.30;;;;;;5029329;28;20033;-72
2023/04/05 09:52:30;;;;;;;9.13;3.92;;;9.30;85.50;;;;;;5023798;28;20056;-73
2023/04/05 09:54:58;;;;;;;8.25;4.45;;;9.40;85.30;;;;;;5022282;28;20034;-72
2023/04/05 09:57:26;;;;;;;5.72;4.13;;;9.50;86.00;;;;;;5022268;28;20333;-72
2023/04/05 09:59:52;;;;;;;8.43;4.30;;;9.60;83.10;;;;;;5028251;28;20036;-72
2023/04/05 10:02:17;;;;;;;6.70;4.10;;;9.60;82.40;;;;;;5025378;28;20037;-72
2023/04/05 10:04:45;;;;;;;6.47;4.20;;;9.70;83.30;;;;;;5031363;28;20029;-71
2023/04/05 10:07:15;;;;;;;7.82;3.75;;;9.70;82.50;;;;;;5029095;28;20108;-71
2023/04/05 10:09:42;;;;;;;9.02;3.72;;;9.80;81.40;;;;;;5024121;28;20045;-72
2023/04/05 10:12:11;;;;;;;6.65;3.85;;;9.70;79.20;;;;;;5030131;28;20033;-71
2023/04/05 10:14:37;;;;;;;6.53;4.10;;;9.70;78.50;;;;;;5029176;28;20089;-71
2023/04/05 10:17:24;;;;;;;6.95;3.65;;;9.80;79.80;;;;;;5029324;28;20044;-71
2023/04/05 10:20:12;;;;;;;5.43;3.70;;;9.90;79.40;;;;;;5022969;28;20076;-71
2023/04/05 10:23:05;;;;;;;7.38;3.42;;;10.00;79.40;;;;;;5013827;28;20571;-72
2023/04/05 10:25:50;;;;;;;;;;;10.10;79.20;;;;;;5023473;28;20120;-71
2023/04/05 10:28:28;;;;;;;6.18;3.50;;;10.20;78.20;;;;;;5028409;28;19972;-72
2023/04/05 10:31:11;;;;;;;6.90;3.40;;;10.10;77.60;;;;;;5026328;28;20017;-71
2023/04/05 10:33:44;;;;;;;7.82;3.97;;;10.20;76.70;;;;;;5025583;28;20486;-72
2023/04/05 10:36:27;;;;;;;8.63;4.57;;;10.30;76.60;;;;;;5018616;28;20478;-72
2023/04/05 10:39:12;;;;;;;7.75;3.63;;;10.30;76.10;;;;;;5030872;28;20029;-72
2023/04/05 10:42:06;;;;;;;8.60;3.85;;;10.30;75.20;;;;;;5026918;28;20124;-72
2023/04/05 10:44:35;;;;;;;6.75;3.55;;;10.30;74.50;;;;;;5024777;28;20038;-71
2023/04/05 10:47:02;;;;;;;5.38;3.20;;;10.30;74.10;;;;;;5030583;28;20120;-72
2023/04/05 10:49:33;;;;;;;9.40;4.03;;;10.20;73.70;;;;;;5047790;28;20087;-71
2023/04/05 10:52:00;;;;;;;5.80;2.97;;;10.30;73.90;;;;;;5030865;28;20136;-71
2023/04/05 10:54:27;;;;;;;6.47;3.53;;;10.40;74.30;;;;;;5031502;28;20449;-72
2023/04/05 10:56:52;;;;;;;5.75;3.10;;;10.50;73.70;;;;;;5023877;28;20021;-72
2023/04/05 10:59:20;;;;;;;7.85;3.45;;;10.60;73.10;;;;;;5021687;28;20037;-72
2023/04/05 11:01:47;;;;;;;8.52;4.00;;;10.60;72.60;;;;;;5018356;28;20033;-72
2023/04/05 11:04:16;;;;;;;12.85;5.22;;;10.60;72.50;;;;;;5012906;28;20091;-72
2023/04/05 11:06:46;;;;;;;9.90;4.22;;;10.60;71.40;;;;;;5013858;28;20034;-71
2023/04/05 11:09:15;;;;;;;7.28;3.60;;;10.50;70.20;;;;;;5016677;28;20992;-71
2023/04/05 11:11:43;;;;;;;6.85;3.83;;;10.60;70.80;;;;;;5017053;28;20378;-71
2023/04/05 11:14:34;;;;;;;7.93;4.28;;;10.60;70.60;;;;;;5029680;28;20043;-71
2023/04/05 11:16:59;;;;;;;9.70;4.35;;;10.70;67.70;;;;;;5012124;28;20041;-71
2023/04/05 11:19:44;;;;;;;6.60;3.95;;;10.50;67.30;;;;;;5015471;28;20498;-72
2023/04/05 11:22:11;;;;;;;8.95;4.20;;;10.60;68.20;;;;;;5014310;28;20033;-72
2023/04/05 11:24:56;;;;;;;13.40;4.03;;;10.60;67.40;;;;;;5012143;28;20221;-72
2023/04/05 11:27:27;;;;;;;7.53;3.80;;;10.50;66.70;;;;;;5017921;28;20060;-72
2023/04/05 11:29:53;;;;;;;6.10;3.72;;;10.60;67.50;;;;;;5026043;28;20034;-71
2023/04/05 11:32:19;;;;;;;6.75;4.07;;;10.70;66.40;;;;;;5026095;28;20121;-72
2023/04/05 11:35:00;;;;;;;6.85;3.47;;;10.70;66.30;;;;;;5028371;28;20662;-72
2023/04/05 11:37:57;;;;;;;6.13;3.42;;;10.70;66.70;;;;;;5047344;28;20480;-72
2023/04/05 11:40:34;;;;;;;7.28;3.75;;;10.90;67.20;;;;;;5010135;28;20029;-72
2023/04/05 11:43:08;;;;;;;10.18;4.57;;;11.00;66.20;;;;;;5020511;28;20061;-72
2023/04/05 11:45:36;;;;;;;9.02;4.15;;;11.00;65.30;;;;;;5031348;28;20030;-72
2023/04/05 11:48:10;;;;;;;9.35;3.88;;;10.90;65.00;;;;;;5031932;28;20105;-72
2023/04/05 11:50:37;;;;;;;5.15;3.20;;;11.00;65.30;;;;;;5031739;28;20036;-71
2023/04/05 11:53:10;;;;;;;7.07;3.78;;;11.00;65.20;;;;;;5031577;28;20060;-71
2023/04/05 11:55:37;;;;;;;6.47;3.75;;;11.10;65.10;;;;;;5029451;28;20037;-71
2023/04/05 11:58:17;;;;;;;6.70;3.53;;;11.00;65.20;;;;;;5028449;28;20030;-72
2023/04/05 12:00:44;;;;;;;5.38;3.47;;;11.10;66.00;;;;;;5023034;28;20037;-72
2023/04/05 12:03:14;;;;;;;6.32;3.28;;;11.20;65.00;;;;;;5027378;28;20034;-71
2023/04/05 12:05:54;;;;;;;6.07;3.50;;;11.30;64.40;;;;;;5024921;28;20029;-72
2023/04/05 12:08:21;;;;;;;6.88;4.10;;;11.40;64.30;;;;;;5018306;28;20025;-72
2023/04/05 12:10:57;;;;;;;7.93;4.18;;;11.40;63.70;;;;;;5028754;28;20017;-72
2023/04/05 12:13:31;;;;;;;12.18;4.38;;;11.40;63.10;;;;;;5030928;28;20025;-72
2023/04/05 12:16:02;;;;;;;7.03;3.83;;;11.30;63.10;;;;;;5030059;28;20045;-72
2023/04/05 12:18:30;;;;;;;7.85;3.92;;;11.40;64.50;;;;;;5031010;28;20025;-72
2023/04/05 12:20:56;;;;;;;9.57;4.32;;;11.50;64.10;;;;;;5030302;28;20101;-72
2023/04/05 12:23:23;;;;;;;8.52;3.83;;;11.60;63.40;;;;;;5021997;28;20183;-72
2023/04/05 12:25:49;;;;;;;8.93;4.28;;;11.50;63.40;;;;;;5030780;28;20030;-72
2023/04/05 12:28:15;;;;;;;6.43;3.63;;;11.70;63.80;;;;;;5030793;28;20017;-72
2023/04/05 12:30:51;;;;;;;6.80;3.60;;;11.70;63.30;;;;;;5031856;28;20028;-72
2023/04/05 12:33:35;;;;;;;8.95;3.85;;;11.70;63.20;;;;;;5018583;28;20079;-72
2023/04/05 12:36:06;;;;;;;9.95;4.70;;;11.70;62.40;;;;;;5014053;28;20033;-71
2023/04/05 12:38:31;;;;;;;8.90;4.50;;;11.60;61.00;;;;;;5031182;28;20087;-72
2023/04/05 12:41:01;;;;;;;6.97;4.18;;;11.50;61.20;;;;;;5029807;28;20021;-72
2023/04/05 12:43:41;;;;;;;8.27;4.40;;;11.50;62.00;;;;;;5017706;28;20027;-71
2023/04/05 12:46:10;;;;;;;7.93;4.28;;;11.60;62.30;;;;;;5028490;28;20029;-72
2023/04/05 12:48:37;;;;;;;7.72;4.63;;;11.70;62.60;;;;;;5031132;28;20036;-72
2023/04/05 12:51:04;;;;;;;8.98;4.40;;;11.90;63.00;;;;;;5030924;28;20037;-71
2023/04/05 12:53:30;;;;;;;5.97;3.92;;;12.20;62.90;;;;;;5017341;28;20043;-72
2023/04/05 12:55:57;;;;;;;10.25;4.25;;;12.30;63.10;;;;;;5019547;28;20071;-72
2023/04/05 12:58:36;;;;;;;5.43;3.88;;;12.40;62.40;;;;;;5030417;28;20539;-72